Time;durP1;ratioP1;P1;durP2;ratioP2;P2;SDS_P1;SDS_P2;PMS_P1;PMS_P2;Temp;Humidity;BMP_temperature;BMP_pressure;BME280_temperature;BME280_humidity;BME280_pressure;Samples;Min_cycle;Max_cycle;Signal;HPM_P1;HPM_P2
2023/10/23 00:00:11;;;;;;;1.77;0.70;;;;;;;;;;4955636;28;20108;-79
2023/10/23 00:02:38;;;;;;;1.33;1.00;;;;;;;;;;4940710;28;20039;-78
2023/10/23 00:05:04;;;;;;;2.10;0.80;;;;;;;;;;4987235;28;20041;-79
2023/10/23 00:07:30;;;;;;;1.40;0.70;;;;;;;;;;4957244;28;20118;-78
2023/10/23 00:09:55;;;;;;;1.38;1.00;;;;;;;;;;4948059;28;20044;-79
2023/10/23 00:12:21;;;;;;;1.92;1.00;;;;;;;;;;4948087;28;20033;-79
2023/10/23 00:14:46;;;;;;;1.58;0.70;;;;;;;;;;4979623;28;20044;-79
2023/10/23 00:17:11;;;;;;;2.50;1.02;;;;;;;;;;4959524;28;20040;-79
2023/10/23 00:19:37;;;;;;;1.65;0.93;;;;;;;;;;4942177;28;20136;-79
2023/10/23 00:22:02;;;;;;;0.57;0.50;;;;;;;;;;4962673;28;20160;-78
2023/10/23 00:24:28;;;;;;;0.82;0.80;;;;;;;;;;4969064;28;20037;-78
2023/10/23 00:26:53;;;;;;;0.63;0.60;;;;;;;;;;4956448;28;20043;-79
2023/10/23 00:29:18;;;;;;;1.02;0.90;;;;;;;;;;4938297;28;20113;-79
2023/10/23 00:31:44;;;;;;;0.88;0.73;;;;;;;;;;4941610;28;20043;-79
2023/10/23 00:34:09;;;;;;;1.48;0.80;;;;;;;;;;4943266;28;20031;-79
2023/10/23 00:36:34;;;;;;;1.77;0.80;;;;;;;;;;4946933;28;20043;-78
2023/10/23 00:39:00;;;;;;;0.57;0.57;;;;;;;;;;4969798;28;20549;-78
2023/10/23 00:41:25;;;;;;;1.17;0.60;;;;;;;;;;4945042;28;20062;-79
2023/10/23 00:43:51;;;;;;;1.63;0.80;;;;;;;;;;4937391;28;20508;-78
2023/10/23 00:46:20;;;;;;;1.00;0.60;;;;;;;;;;4963431;28;20036;-77
2023/10/23 00:48:47;;;;;;;2.25;0.80;;;;;;;;;;4978027;28;20060;-79
2023/10/23 00:51:14;;;;;;;0.70;0.70;;;;;;;;;;4939786;28;20035;-79
2023/10/23 00:53:41;;;;;;;0.82;0.75;;;;;;;;;;4955795;28;20051;-79
2023/10/23 00:56:08;;;;;;;1.50;1.10;;;;;;;;;;4939001;28;20046;-78
2023/10/23 00:58:38;;;;;;;3.03;0.90;;;;;;;;;;4944020;28;20036;-78
2023/10/23 01:01:03;;;;;;;1.20;1.10;;;;;;;;;;4964239;28;20031;-79
2023/10/23 01:03:29;;;;;;;1.30;0.80;;;;;;;;;;4956379;28;20543;-79
2023/10/23 01:05:54;;;;;;;1.73;0.80;;;;;;;;;;4936872;28;20070;-80
2023/10/23 01:08:20;;;;;;;1.88;1.10;;;;;;;;;;4953500;28;20043;-79
2023/10/23 01:10:46;;;;;;;0.95;0.70;;;;;;;;;;4932749;28;20169;-79
2023/10/23 01:13:12;;;;;;;0.88;0.70;;;;;;;;;;4937999;28;20033;-79
2023/10/23 01:15:38;;;;;;;0.77;0.77;;;;;;;;;;4954466;28;20039;-79
2023/10/23 01:18:04;;;;;;;1.15;0.95;;;;;;;;;;4933470;28;20061;-79
2023/10/23 01:20:30;;;;;;;2.17;0.90;;;;;;;;;;4941234;28;20047;-80
2023/10/23 01:22:57;;;;;;;1.33;0.90;;;;;;;;;;4947690;28;20035;-79
2023/10/23 01:25:22;;;;;;;0.73;0.73;;;;;;;;;;4930268;28;20917;-80
2023/10/23 01:27:47;;;;;;;0.70;0.70;;;;;;;;;;4966696;28;20125;-80
2023/10/23 01:30:13;;;;;;;0.98;0.80;;;;;;;;;;4992297;28;20040;-80
2023/10/23 01:32:38;;;;;;;1.35;0.80;;;;;;;;;;4957134;28;20039;-80
2023/10/23 01:35:04;;;;;;;1.92;0.90;;;;;;;;;;4928879;28;20034;-80
2023/10/23 01:37:29;;;;;;;1.67;0.80;;;;;;;;;;4950253;28;20105;-80
2023/10/23 01:39:55;;;;;;;0.60;0.60;;;;;;;;;;4952813;28;20086;-80
2023/10/23 01:42:20;;;;;;;0.77;0.70;;;;;;;;;;4965533;28;20115;-80
2023/10/23 01:44:46;;;;;;;0.70;0.70;;;;;;;;;;4944984;28;20696;-79
2023/10/23 01:47:11;;;;;;;1.42;0.80;;;;;;;;;;4953920;28;20525;-81
2023/10/23 01:49:37;;;;;;;1.75;0.80;;;;;;;;;;4972878;28;20465;-81
2023/10/23 01:52:03;;;;;;;1.08;0.80;;;;;;;;;;4973079;28;20141;-80
2023/10/23 01:54:28;;;;;;;4.25;1.17;;;;;;;;;;4953293;28;20107;-80
2023/10/23 01:56:53;;;;;;;3.03;1.23;;;;;;;;;;4967979;28;20085;-79
2023/10/23 01:59:19;;;;;;;1.58;1.00;;;;;;;;;;4951557;28;20055;-79
2023/10/23 02:01:44;;;;;;;3.25;1.60;;;;;;;;;;4961618;28;20066;-79
2023/10/23 02:04:10;;;;;;;3.17;1.33;;;;;;;;;;4955509;28;20073;-80
2023/10/23 02:06:35;;;;;;;0.77;0.77;;;;;;;;;;4951526;28;20539;-80
2023/10/23 02:09:01;;;;;;;2.30;1.17;;;;;;;;;;4955759;28;20066;-81
2023/10/23 02:11:27;;;;;;;2.35;0.90;;;;;;;;;;4962570;28;20058;-80
2023/10/23 02:13:52;;;;;;;1.70;1.10;;;;;;;;;;4928798;28;20039;-81
2023/10/23 02:16:17;;;;;;;2.10;1.38;;;;;;;;;;4961699;28;20047;-80
2023/10/23 02:18:43;;;;;;;1.70;1.10;;;;;;;;;;4935650;28;20082;-81
2023/10/23 02:21:09;;;;;;;4.15;1.13;;;;;;;;;;4949069;28;20047;-80
2023/10/23 02:23:35;;;;;;;1.17;0.90;;;;;;;;;;4943263;28;20511;-79
2023/10/23 02:26:00;;;;;;;0.80;0.80;;;;;;;;;;4962171;28;20043;-79
2023/10/23 02:28:26;;;;;;;1.98;0.70;;;;;;;;;;4933799;28;20043;-79
2023/10/23 02:30:52;;;;;;;1.17;0.70;;;;;;;;;;4965184;28;20043;-81
2023/10/23 02:33:17;;;;;;;0.95;0.82;;;;;;;;;;4959356;28;20086;-80
2023/10/23 02:35:43;;;;;;;2.30;1.20;;;;;;;;;;4948071;28;20558;-80
2023/10/23 02:38:09;;;;;;;1.30;0.70;;;;;;;;;;4925265;28;20114;-79
2023/10/23 02:40:34;;;;;;;1.45;0.90;;;;;;;;;;4936452;28;20043;-79
2023/10/23 02:43:00;;;;;;;0.98;0.80;;;;;;;;;;4969112;28;20062;-81
2023/10/23 02:45:25;;;;;;;2.00;0.88;;;;;;;;;;4957957;28;20106;-79
2023/10/23 02:47:51;;;;;;;1.27;0.80;;;;;;;;;;4955021;28;20082;-80
2023/10/23 02:50:16;;;;;;;0.80;0.80;;;;;;;;;;4949636;28;20073;-79
2023/10/23 02:52:41;;;;;;;0.70;0.70;;;;;;;;;;4926351;28;20063;-80
2023/10/23 02:55:07;;;;;;;2.00;0.98;;;;;;;;;;4941104;28;20037;-80
2023/10/23 02:57:33;;;;;;;0.90;0.80;;;;;;;;;;4961542;28;20059;-80
2023/10/23 02:59:58;;;;;;;1.20;0.90;;;;;;;;;;4944775;28;20686;-80
2023/10/23 03:02:24;;;;;;;2.05;0.80;;;;;;;;;;4951069;28;20093;-80
2023/10/23 03:04:49;;;;;;;1.08;0.80;;;;;;;;;;4934896;28;20118;-79
2023/10/23 03:07:15;;;;;;;0.73;0.65;;;;;;;;;;4960500;28;20032;-80
2023/10/23 03:09:40;;;;;;;0.85;0.82;;;;;;;;;;4942253;28;20146;-80
2023/10/23 03:12:06;;;;;;;1.00;1.00;;;;;;;;;;4942288;28;20037;-80
2023/10/23 03:14:32;;;;;;;0.70;0.70;;;;;;;;;;4933312;28;20043;-80
2023/10/23 03:16:57;;;;;;;2.78;1.10;;;;;;;;;;4945574;28;20055;-79
2023/10/23 03:19:25;;;;;;;1.15;0.90;;;;;;;;;;4973755;28;20046;-79
2023/10/23 03:21:51;;;;;;;0.75;0.68;;;;;;;;;;4966052;28;20412;-80
2023/10/23 03:24:18;;;;;;;1.30;1.00;;;;;;;;;;4930291;28;20031;-80
2023/10/23 03:26:43;;;;;;;3.92;0.98;;;;;;;;;;4935568;28;20031;-79
2023/10/23 03:29:09;;;;;;;1.98;1.10;;;;;;;;;;4952201;28;20043;-80
2023/10/23 03:31:34;;;;;;;1.45;0.88;;;;;;;;;;4935915;28;20043;-79
2023/10/23 03:34:00;;;;;;;1.00;0.80;;;;;;;;;;4967495;28;20037;-80
2023/10/23 03:36:25;;;;;;;1.92;0.90;;;;;;;;;;4952009;28;20039;-80
2023/10/23 03:38:51;;;;;;;0.63;0.63;;;;;;;;;;4953240;28;20039;-79
2023/10/23 03:41:16;;;;;;;1.98;0.90;;;;;;;;;;4994687;28;20808;-79
2023/10/23 03:43:42;;;;;;;1.40;0.70;;;;;;;;;;4947970;28;20040;-80
2023/10/23 03:46:07;;;;;;;1.15;0.90;;;;;;;;;;4948997;28;20042;-80
2023/10/23 03:48:36;;;;;;;1.40;0.70;;;;;;;;;;4933650;28;20415;-80
2023/10/23 03:51:02;;;;;;;2.90;1.00;;;;;;;;;;4956674;28;20037;-79
2023/10/23 03:53:27;;;;;;;3.15;0.85;;;;;;;;;;4969156;28;20284;-80
2023/10/23 03:55:53;;;;;;;1.38;0.77;;;;;;;;;;4943977;28;20051;-81
2023/10/23 03:58:18;;;;;;;0.75;0.75;;;;;;;;;;4934157;28;20051;-80
2023/10/23 04:00:44;;;;;;;0.77;0.68;;;;;;;;;;4923913;28;20043;-81
2023/10/23 04:03:11;;;;;;;2.15;0.93;;;;;;;;;;4926866;28;20025;-80
2023/10/23 04:05:40;;;;;;;1.40;1.08;;;;;;;;;;4939274;28;20039;-80
2023/10/23 04:08:05;;;;;;;1.38;0.90;;;;;;;;;;4955485;28;20036;-80
2023/10/23 04:10:31;;;;;;;1.33;0.68;;;;;;;;;;4930436;28;20114;-80
2023/10/23 04:12:57;;;;;;;2.15;1.08;;;;;;;;;;5013826;28;20134;-82
2023/10/23 04:15:23;;;;;;;0.75;0.75;;;;;;;;;;4944202;28;20531;-80
2023/10/23 04:17:49;;;;;;;0.50;0.50;;;;;;;;;;4930544;28;20101;-81
2023/10/23 04:20:14;;;;;;;0.60;0.60;;;;;;;;;;4945915;28;20046;-81
2023/10/23 04:22:39;;;;;;;1.45;1.20;;;;;;;;;;4982995;28;20037;-79
2023/10/23 04:25:05;;;;;;;1.38;1.27;;;;;;;;;;4939376;28;20061;-79
2023/10/23 04:27:31;;;;;;;1.75;0.93;;;;;;;;;;4947275;28;20102;-79
2023/10/23 04:29:59;;;;;;;0.88;0.88;;;;;;;;;;4968242;28;20035;-79
2023/10/23 04:32:26;;;;;;;0.55;0.55;;;;;;;;;;4927872;28;20051;-79
2023/10/23 04:34:51;;;;;;;1.17;0.95;;;;;;;;;;4943252;28;20093;-78
2023/10/23 04:37:16;;;;;;;1.40;1.00;;;;;;;;;;4938668;28;20678;-78
2023/10/23 04:39:42;;;;;;;0.85;0.85;;;;;;;;;;4937984;28;20093;-80
2023/10/23 04:42:07;;;;;;;3.47;1.50;;;;;;;;;;4927457;28;20130;-81
2023/10/23 04:44:34;;;;;;;1.20;1.10;;;;;;;;;;4929886;28;20042;-79
2023/10/23 04:46:59;;;;;;;1.80;0.80;;;;;;;;;;4927568;28;20514;-80
2023/10/23 04:49:25;;;;;;;0.82;0.82;;;;;;;;;;4944413;28;20055;-81
2023/10/23 04:51:50;;;;;;;1.10;1.00;;;;;;;;;;4925795;28;20649;-80
2023/10/23 04:54:16;;;;;;;2.20;0.98;;;;;;;;;;4940088;28;20055;-80
2023/10/23 04:56:41;;;;;;;1.85;0.90;;;;;;;;;;4954100;28;20081;-81
2023/10/23 04:59:07;;;;;;;1.23;0.70;;;;;;;;;;4909225;28;20070;-80
2023/10/23 05:01:33;;;;;;;0.80;0.60;;;;;;;;;;4953926;28;20041;-80
2023/10/23 05:03:59;;;;;;;1.67;0.90;;;;;;;;;;4935073;28;20042;-80
2023/10/23 05:06:26;;;;;;;1.10;0.80;;;;;;;;;;4933102;28;20610;-80
2023/10/23 05:08:51;;;;;;;1.73;0.90;;;;;;;;;;4930882;28;20036;-79
2023/10/23 05:11:17;;;;;;;0.60;0.60;;;;;;;;;;4944075;28;20043;-80
2023/10/23 05:13:42;;;;;;;1.05;0.88;;;;;;;;;;4922207;28;20497;-81
2023/10/23 05:16:08;;;;;;;1.92;0.90;;;;;;;;;;4952485;28;20093;-80
2023/10/23 05:18:34;;;;;;;0.88;0.88;;;;;;;;;;4947976;28;20341;-80
2023/10/23 05:21:12;;;;;;;0.80;0.80;;;;;;;;;;4961413;28;20043;-79
2023/10/23 05:23:38;;;;;;;2.38;1.17;;;;;;;;;;4906956;28;20097;-78
2023/10/23 05:26:04;;;;;;;1.70;1.00;;;;;;;;;;4948749;28;20042;-78
2023/10/23 05:28:29;;;;;;;1.67;0.90;;;;;;;;;;4961419;28;20050;-79
2023/10/23 05:30:55;;;;;;;1.70;1.00;;;;;;;;;;4944799;28;20086;-79
2023/10/23 05:33:20;;;;;;;1.17;0.90;;;;;;;;;;4949304;28;20063;-80
2023/10/23 05:35:46;;;;;;;1.45;0.70;;;;;;;;;;4958816;28;20577;-80
2023/10/23 05:38:12;;;;;;;0.93;0.70;;;;;;;;;;4943326;28;20047;-79
2023/10/23 05:40:37;;;;;;;0.75;0.68;;;;;;;;;;4934923;28;20508;-80
2023/10/23 05:43:03;;;;;;;1.27;0.90;;;;;;;;;;4956407;28;20035;-79
2023/10/23 05:45:28;;;;;;;1.80;1.05;;;;;;;;;;4945330;28;20050;-79
2023/10/23 05:47:53;;;;;;;4.50;1.20;;;;;;;;;;4951875;28;20043;-79
2023/10/23 05:50:19;;;;;;;1.67;1.10;;;;;;;;;;4962651;28;20053;-80
2023/10/23 05:52:44;;;;;;;0.70;0.70;;;;;;;;;;4933565;28;20039;-80
2023/10/23 05:55:10;;;;;;;2.58;1.00;;;;;;;;;;4947140;28;20063;-80
2023/10/23 05:57:35;;;;;;;0.70;0.70;;;;;;;;;;4958022;28;20039;-80
2023/10/23 06:00:03;;;;;;;2.58;0.77;;;;;;;;;;4946482;28;20134;-80
2023/10/23 06:02:30;;;;;;;2.55;1.10;;;;;;;;;;4943330;28;20062;-80
2023/10/23 06:04:55;;;;;;;1.35;0.70;;;;;;;;;;4967080;28;20169;-80
2023/10/23 06:07:21;;;;;;;0.70;0.70;;;;;;;;;;4943740;28;20114;-80
2023/10/23 06:09:47;;;;;;;1.55;0.82;;;;;;;;;;4930745;28;20086;-80
2023/10/23 06:12:14;;;;;;;1.48;1.17;;;;;;;;;;4957045;28;20051;-80
2023/10/23 06:14:40;;;;;;;0.88;0.80;;;;;;;;;;4948601;28;20051;-80
2023/10/23 06:17:05;;;;;;;0.95;0.90;;;;;;;;;;4960117;28;20053;-80
2023/10/23 06:19:36;;;;;;;2.45;1.27;;;;;;;;;;4954004;28;20451;-80
2023/10/23 06:22:02;;;;;;;0.95;0.80;;;;;;;;;;4966166;28;20042;-80
2023/10/23 06:24:27;;;;;;;1.13;0.70;;;;;;;;;;4954348;28;20446;-79
2023/10/23 06:26:52;;;;;;;1.45;1.02;;;;;;;;;;4954118;28;20067;-80
2023/10/23 06:29:18;;;;;;;4.13;1.35;;;;;;;;;;4926135;28;20529;-80
2023/10/23 06:31:43;;;;;;;2.45;2.20;;;;;;;;;;4922755;28;20047;-80
2023/10/23 06:34:08;;;;;;;4.30;2.75;;;;;;;;;;4941574;28;20040;-80
2023/10/23 06:36:34;;;;;;;4.35;2.97;;;;;;;;;;4956865;28;20036;-80
2023/10/23 06:38:59;;;;;;;7.97;3.00;;;;;;;;;;4947584;28;20122;-80
2023/10/23 06:41:25;;;;;;;3.30;2.00;;;;;;;;;;4938878;28;20039;-79
2023/10/23 06:43:50;;;;;;;1.77;1.38;;;;;;;;;;4971999;28;20405;-81
2023/10/23 06:46:16;;;;;;;1.90;1.77;;;;;;;;;;4989407;28;20047;-80
2023/10/23 06:48:47;;;;;;;2.20;1.38;;;;;;;;;;4969767;28;20074;-80
2023/10/23 06:51:13;;;;;;;5.65;2.40;;;;;;;;;;4947747;28;20029;-79
2023/10/23 06:53:39;;;;;;;3.83;2.45;;;;;;;;;;4943390;28;20039;-80
2023/10/23 06:56:05;;;;;;;2.83;2.20;;;;;;;;;;4960210;28;20042;-80
2023/10/23 06:58:30;;;;;;;1.63;1.42;;;;;;;;;;4954489;28;20047;-79
2023/10/23 07:00:56;;;;;;;1.60;1.15;;;;;;;;;;4957299;28;20054;-80
2023/10/23 07:03:21;;;;;;;0.98;0.98;;;;;;;;;;4948104;28;20047;-80
2023/10/23 07:05:47;;;;;;;0.98;0.80;;;;;;;;;;4933660;28;20036;-80
2023/10/23 07:08:13;;;;;;;1.67;1.00;;;;;;;;;;4990058;28;20687;-80
2023/10/23 07:10:38;;;;;;;2.53;1.80;;;;;;;;;;4946266;28;20519;-80
2023/10/23 07:13:04;;;;;;;2.13;1.45;;;;;;;;;;4947636;28;20067;-80
2023/10/23 07:15:34;;;;;;;1.10;1.00;;;;;;;;;;4958235;28;20070;-78
2023/10/23 07:17:59;;;;;;;2.28;2.00;;;;;;;;;;4949129;28;20047;-80
2023/10/23 07:20:25;;;;;;;2.28;1.75;;;;;;;;;;4945837;28;20097;-79
2023/10/23 07:22:50;;;;;;;1.95;1.80;;;;;;;;;;4957353;28;20126;-80
2023/10/23 07:25:15;;;;;;;1.65;1.20;;;;;;;;;;4966946;28;20477;-79
2023/10/23 07:27:41;;;;;;;0.90;0.90;;;;;;;;;;4970713;28;20549;-80
2023/10/23 07:30:07;;;;;;;1.60;1.50;;;;;;;;;;4956150;28;20674;-79
2023/10/23 07:32:34;;;;;;;1.38;1.20;;;;;;;;;;4944543;28;20043;-80
2023/10/23 07:35:00;;;;;;;1.73;1.63;;;;;;;;;;4951444;28;20043;-80
2023/10/23 07:37:27;;;;;;;1.67;1.30;;;;;;;;;;4949957;28;20637;-80
2023/10/23 07:39:52;;;;;;;5.38;2.95;;;;;;;;;;4955273;28;20593;-79
2023/10/23 07:42:18;;;;;;;8.00;5.22;;;;;;;;;;4935018;28;20059;-79
2023/10/23 07:48:05;;;;;;;3.47;2.47;;;;;;;;;;4921242;28;20134;-80
2023/10/23 07:50:33;;;;;;;4.78;3.65;;;;;;;;;;4960176;28;20031;-79
2023/10/23 07:52:59;;;;;;;4.95;3.42;;;;;;;;;;4941735;28;20114;-80
2023/10/23 07:55:24;;;;;;;7.80;4.15;;;;;;;;;;4954767;28;20074;-80
2023/10/23 07:57:50;;;;;;;5.55;2.80;;;;;;;;;;4943276;28;20068;-80
2023/10/23 08:00:15;;;;;;;3.75;2.97;;;;;;;;;;4946534;28;20039;-80
2023/10/23 08:02:41;;;;;;;5.35;3.17;;;;;;;;;;4929175;28;20045;-80
2023/10/23 08:05:06;;;;;;;1.60;1.50;;;;;;;;;;4943659;28;20517;-80
2023/10/23 08:07:32;;;;;;;5.55;2.97;;;;;;;;;;4955250;28;20043;-79
2023/10/23 08:09:57;;;;;;;3.90;3.38;;;;;;;;;;4956643;28;20093;-79
2023/10/23 08:12:23;;;;;;;2.58;2.17;;;;;;;;;;4952039;28;20571;-79
2023/10/23 08:14:48;;;;;;;2.08;1.83;;;;;;;;;;4939729;28;20058;-78
2023/10/23 08:17:13;;;;;;;1.65;1.25;;;;;;;;;;4944267;28;20054;-80
2023/10/23 08:19:39;;;;;;;4.43;3.10;;;;;;;;;;4958611;28;20069;-78
2023/10/23 08:22:05;;;;;;;5.05;3.03;;;;;;;;;;4946255;28;20054;-80
2023/10/23 08:24:30;;;;;;;4.70;3.33;;;;;;;;;;4934151;28;20043;-79
2023/10/23 08:26:55;;;;;;;3.92;2.45;;;;;;;;;;4952114;28;20046;-79
2023/10/23 08:29:21;;;;;;;4.00;2.45;;;;;;;;;;4925803;28;20043;-79
2023/10/23 08:31:47;;;;;;;4.90;3.00;;;;;;;;;;4955916;28;20112;-80
2023/10/23 08:34:12;;;;;;;3.85;2.70;;;;;;;;;;4930139;28;20173;-79
2023/10/23 08:36:38;;;;;;;4.75;2.10;;;;;;;;;;4949650;28;20145;-80
2023/10/23 08:39:03;;;;;;;3.03;1.77;;;;;;;;;;4948953;28;20037;-80
2023/10/23 08:41:29;;;;;;;2.80;1.30;;;;;;;;;;4931281;28;20302;-78
2023/10/23 08:43:55;;;;;;;2.10;1.10;;;;;;;;;;4916930;28;20455;-79
2023/10/23 08:46:25;;;;;;;3.50;2.03;;;;;;;;;;4928250;28;20051;-80
2023/10/23 08:48:50;;;;;;;1.27;1.17;;;;;;;;;;4945206;28;20601;-79
2023/10/23 08:51:16;;;;;;;1.38;1.27;;;;;;;;;;4954596;28;20071;-79
2023/10/23 08:54:00;;;;;;;1.83;1.17;;;;;;;;;;4963491;28;20034;-79
2023/10/23 08:56:26;;;;;;;3.33;1.85;;;;;;;;;;4951525;28;20052;-79
2023/10/23 08:58:59;;;;;;;2.80;1.67;;;;;;;;;;4942480;28;20053;-79
2023/10/23 09:01:25;;;;;;;4.75;2.22;;;;;;;;;;4964677;28;20046;-80
2023/10/23 09:03:50;;;;;;;3.80;2.47;;;;;;;;;;4944006;28;20070;-79
2023/10/23 09:06:18;;;;;;;2.30;1.90;;;;;;;;;;4921331;28;20074;-78
2023/10/23 09:08:44;;;;;;;1.50;1.40;;;;;;;;;;4964017;28;20044;-78
2023/10/23 09:11:10;;;;;;;3.78;1.95;;;;;;;;;;4966889;28;20047;-79
2023/10/23 09:13:38;;;;;;;3.83;2.30;;;;;;;;;;4929327;28;20035;-79
2023/10/23 09:16:05;;;;;;;3.13;2.10;;;;;;;;;;4926262;28;20093;-79
2023/10/23 09:18:31;;;;;;;1.42;1.25;;;;;;;;;;4948267;28;20580;-79
2023/10/23 09:20:57;;;;;;;2.88;2.03;;;;;;;;;;4950186;28;20051;-79
2023/10/23 09:23:22;;;;;;;3.78;1.88;;;;;;;;;;4971100;28;20043;-79
2023/10/23 09:25:49;;;;;;;5.85;2.25;;;;;;;;;;4950924;28;20380;-79
2023/10/23 09:28:14;;;;;;;1.83;1.58;;;;;;;;;;4961395;28;20077;-79
2023/10/23 09:30:42;;;;;;;3.67;2.05;;;;;;;;;;4940505;28;20062;-78
2023/10/23 09:33:10;;;;;;;1.65;1.33;;;;;;;;;;4956616;28;20445;-79
2023/10/23 09:35:35;;;;;;;2.00;1.70;;;;;;;;;;4924969;28;20049;-79
2023/10/23 09:38:11;;;;;;;2.92;2.00;;;;;;;;;;4944292;28;20046;-79
2023/10/23 09:40:36;;;;;;;28.10;2.83;;;;;;;;;;4943075;28;20043;-79
2023/10/23 09:43:02;;;;;;;2.75;1.80;;;;;;;;;;4948406;28;20043;-79
2023/10/23 09:45:30;;;;;;;3.15;1.80;;;;;;;;;;4943633;28;20035;-79
2023/10/23 09:47:58;;;;;;;3.83;1.83;;;;;;;;;;4945061;28;20051;-79
2023/10/23 09:50:26;;;;;;;2.55;1.98;;;;;;;;;;4952151;28;20043;-79
2023/10/23 09:52:56;;;;;;;1.90;1.60;;;;;;;;;;4959374;28;20041;-79
2023/10/23 09:55:26;;;;;;;3.23;2.00;;;;;;;;;;4953304;28;20614;-79
2023/10/23 09:57:53;;;;;;;2.67;1.33;;;;;;;;;;4953404;28;20109;-79
2023/10/23 10:00:20;;;;;;;1.98;1.77;;;;;;;;;;4966112;28;20083;-79
2023/10/23 10:02:58;;;;;;;2.67;1.70;;;;;;;;;;4956866;28;20063;-79
2023/10/23 10:05:40;;;;;;;1.85;1.40;;;;;;;;;;4938425;28;20044;-79
2023/10/23 10:08:13;;;;;;;1.55;1.15;;;;;;;;;;4957332;28;20154;-79
2023/10/23 10:10:39;;;;;;;2.25;2.00;;;;;;;;;;4951766;28;20062;-78
2023/10/23 10:13:06;;;;;;;1.70;1.52;;;;;;;;;;4942915;28;20035;-79
2023/10/23 10:15:32;;;;;;;2.50;1.92;;;;;;;;;;4937860;28;20031;-79
2023/10/23 10:17:57;;;;;;;3.00;1.92;;;;;;;;;;5009249;28;20047;-78
2023/10/23 10:20:23;;;;;;;3.78;1.83;;;;;;;;;;4964798;28;20428;-79
2023/10/23 10:22:56;;;;;;;2.05;1.70;;;;;;;;;;4952803;28;20052;-79
2023/10/23 10:25:22;;;;;;;3.25;1.80;;;;;;;;;;4955135;28;20400;-79
2023/10/23 10:27:58;;;;;;;2.42;1.80;;;;;;;;;;4948263;28;20090;-79
2023/10/23 10:30:49;;;;;;;2.40;1.80;;;;;;;;;;4925909;28;20050;-79
2023/10/23 10:33:24;;;;;;;2.90;1.88;;;;;;;;;;4951005;28;20033;-79
2023/10/23 10:36:00;;;;;;;4.18;1.38;;;;;;;;;;4957588;28;20043;-79
2023/10/23 10:38:27;;;;;;;2.10;1.70;;;;;;;;;;4959980;28;20025;-79
2023/10/23 10:41:02;;;;;;;1.70;1.40;;;;;;;;;;4958537;28;20113;-79
2023/10/23 10:43:34;;;;;;;2.10;1.80;;;;;;;;;;4947710;28;20053;-79
2023/10/23 10:46:14;;;;;;;2.50;1.58;;;;;;;;;;4967888;28;20035;-78
2023/10/23 10:48:50;;;;;;;3.08;1.67;;;;;;;;;;4945724;28;20039;-79
2023/10/23 10:51:23;;;;;;;2.75;1.98;;;;;;;;;;4914317;28;20420;-79
2023/10/23 10:53:55;;;;;;;2.30;1.33;;;;;;;;;;4948810;28;20118;-79
2023/10/23 10:56:20;;;;;;;2.38;1.95;;;;;;;;;;4963144;28;20588;-78
2023/10/23 10:58:46;;;;;;;3.28;1.90;;;;;;;;;;4988496;28;20102;-79
2023/10/23 11:01:12;;;;;;;3.50;2.03;;;;;;;;;;4944162;28;20051;-79
2023/10/23 11:03:37;;;;;;;2.42;2.17;;;;;;;;;;4964518;28;20126;-78
2023/10/23 11:06:05;;;;;;;1.73;1.55;;;;;;;;;;4971390;28;20202;-78
2023/10/23 11:08:31;;;;;;;1.83;1.67;;;;;;;;;;4965642;28;20514;-78
2023/10/23 11:10:57;;;;;;;2.35;1.10;;;;;;;;;;4956853;28;20035;-78
2023/10/23 11:13:22;;;;;;;1.98;1.77;;;;;;;;;;4979222;28;20052;-79
2023/10/23 11:15:48;;;;;;;3.97;1.58;;;;;;;;;;4955859;28;20035;-78
2023/10/23 11:18:16;;;;;;;2.22;1.70;;;;;;;;;;4963477;28;20493;-79
2023/10/23 11:20:44;;;;;;;1.88;1.60;;;;;;;;;;4951234;28;20041;-78
2023/10/23 11:23:13;;;;;;;2.40;1.77;;;;;;;;;;4957680;28;20035;-79
2023/10/23 11:25:39;;;;;;;1.55;1.20;;;;;;;;;;4961021;28;20100;-79
2023/10/23 11:28:05;;;;;;;1.30;1.08;;;;;;;;;;4942339;28;20308;-78
2023/10/23 11:30:31;;;;;;;1.45;1.00;;;;;;;;;;4960357;28;20114;-78
2023/10/23 11:32:57;;;;;;;1.58;1.17;;;;;;;;;;4961848;28;20043;-78
2023/10/23 11:35:31;;;;;;;1.00;0.90;;;;;;;;;;4968495;28;20073;-79
2023/10/23 11:37:57;;;;;;;1.25;1.15;;;;;;;;;;4962944;28;20055;-79
2023/10/23 11:40:22;;;;;;;2.30;1.10;;;;;;;;;;4935349;28;20070;-79
2023/10/23 11:42:54;;;;;;;1.90;1.25;;;;;;;;;;4943029;28;20035;-78
2023/10/23 11:45:21;;;;;;;1.10;1.00;;;;;;;;;;4924849;28;20052;-78
2023/10/23 11:47:46;;;;;;;1.33;0.98;;;;;;;;;;4940890;28;20586;-78
2023/10/23 11:50:13;;;;;;;5.30;2.83;;;;;;;;;;4945949;28;20051;-77
2023/10/23 11:52:41;;;;;;;2.30;1.77;;;;;;;;;;4953895;28;20462;-78
2023/10/23 11:55:08;;;;;;;1.23;0.85;;;;;;;;;;4926115;28;20039;-78
2023/10/23 11:57:34;;;;;;;1.92;0.85;;;;;;;;;;4941215;28;20053;-78
2023/10/23 12:00:06;;;;;;;0.93;0.85;;;;;;;;;;4960054;28;20045;-78
2023/10/23 12:02:32;;;;;;;1.00;0.85;;;;;;;;;;4960445;28;20045;-78
2023/10/23 12:04:57;;;;;;;1.45;0.70;;;;;;;;;;4953594;28;20495;-78
2023/10/23 12:07:23;;;;;;;1.38;0.70;;;;;;;;;;4972914;28;20031;-78
2023/10/23 12:09:48;;;;;;;1.00;0.70;;;;;;;;;;4958792;28;20035;-78
2023/10/23 12:12:14;;;;;;;2.67;0.70;;;;;;;;;;4951353;28;20025;-78
2023/10/23 12:14:39;;;;;;;1.17;0.63;;;;;;;;;;4936474;28;20058;-78
2023/10/23 12:17:05;;;;;;;0.88;0.60;;;;;;;;;;4970387;28;20033;-78
2023/10/23 12:19:30;;;;;;;1.65;0.60;;;;;;;;;;4950326;28;20515;-78
2023/10/23 12:21:55;;;;;;;1.10;0.50;;;;;;;;;;4954758;28;20047;-78
2023/10/23 12:24:21;;;;;;;0.52;0.50;;;;;;;;;;4934084;28;20039;-78
2023/10/23 12:26:47;;;;;;;1.50;0.60;;;;;;;;;;4939231;28;20035;-78
2023/10/23 12:29:15;;;;;;;1.58;0.68;;;;;;;;;;4949273;28;20033;-78
2023/10/23 12:31:40;;;;;;;1.85;0.73;;;;;;;;;;4952073;28;20054;-78
2023/10/23 12:34:06;;;;;;;1.63;0.50;;;;;;;;;;4949804;28;20132;-78
2023/10/23 12:36:31;;;;;;;2.08;0.60;;;;;;;;;;4941971;28;20054;-78
2023/10/23 12:38:56;;;;;;;1.98;0.52;;;;;;;;;;4958565;28;20382;-78
2023/10/23 12:41:23;;;;;;;2.28;0.60;;;;;;;;;;4911761;28;20505;-78
2023/10/23 12:43:48;;;;;;;2.88;0.82;;;;;;;;;;4935948;28;20147;-78
2023/10/23 12:46:14;;;;;;;1.20;0.60;;;;;;;;;;4962567;28;20037;-78
2023/10/23 12:48:43;;;;;;;1.35;0.52;;;;;;;;;;4915244;28;20054;-78
2023/10/23 12:51:08;;;;;;;1.48;0.52;;;;;;;;;;4942638;28;20049;-78
2023/10/23 12:53:34;;;;;;;1.58;0.50;;;;;;;;;;4938628;28;20550;-78
2023/10/23 12:55:59;;;;;;;2.05;0.50;;;;;;;;;;4954449;28;20104;-78
2023/10/23 12:58:25;;;;;;;1.55;0.57;;;;;;;;;;4943700;28;20460;-77
2023/10/23 13:00:50;;;;;;;1.27;0.50;;;;;;;;;;4943113;28;20036;-78
2023/10/23 13:03:15;;;;;;;1.48;0.63;;;;;;;;;;4949187;28;20039;-78
2023/10/23 13:05:41;;;;;;;1.15;0.80;;;;;;;;;;4940478;28;20051;-78
2023/10/23 13:08:06;;;;;;;1.48;0.40;;;;;;;;;;4946615;28;20153;-78
2023/10/23 13:10:32;;;;;;;2.58;0.55;;;;;;;;;;4933956;28;20496;-79
2023/10/23 13:12:58;;;;;;;0.70;0.70;;;;;;;;;;4943763;28;20031;-78
2023/10/23 13:15:24;;;;;;;0.63;0.40;;;;;;;;;;4976029;28;20037;-78
2023/10/23 13:17:53;;;;;;;0.85;0.57;;;;;;;;;;4936417;28;20051;-78
2023/10/23 13:20:19;;;;;;;1.95;0.60;;;;;;;;;;4952908;28;20056;-78
2023/10/23 13:22:46;;;;;;;1.40;0.65;;;;;;;;;;4948745;28;20066;-78
2023/10/23 13:25:13;;;;;;;0.70;0.57;;;;;;;;;;4951522;28;20048;-78
2023/10/23 13:27:38;;;;;;;2.03;0.60;;;;;;;;;;4945442;28;20093;-78
2023/10/23 13:30:07;;;;;;;2.08;0.68;;;;;;;;;;4940475;28;20427;-78
2023/10/23 13:32:33;;;;;;;0.63;0.60;;;;;;;;;;4959579;28;20052;-78
2023/10/23 13:35:01;;;;;;;1.13;0.43;;;;;;;;;;4939232;28;20039;-78
2023/10/23 13:37:26;;;;;;;1.20;0.60;;;;;;;;;;4930372;28;20060;-78
2023/10/23 13:39:52;;;;;;;1.52;0.50;;;;;;;;;;4947086;28;20137;-78
2023/10/23 13:42:17;;;;;;;3.30;0.90;;;;;;;;;;4956006;28;20054;-78
2023/10/23 13:44:42;;;;;;;2.50;0.73;;;;;;;;;;4942099;28;20039;-78
2023/10/23 13:47:08;;;;;;;0.77;0.55;;;;;;;;;;4947802;28;20531;-78
2023/10/23 13:49:33;;;;;;;2.65;0.80;;;;;;;;;;4935159;28;20050;-79
2023/10/23 13:51:58;;;;;;;1.38;0.50;;;;;;;;;;4931706;28;20081;-77
2023/10/23 13:54:24;;;;;;;0.65;0.60;;;;;;;;;;4986339;28;20037;-78
2023/10/23 13:56:49;;;;;;;0.70;0.70;;;;;;;;;;4959811;28;20064;-78
2023/10/23 13:59:15;;;;;;;0.77;0.68;;;;;;;;;;4935807;28;20033;-77
2023/10/23 14:01:40;;;;;;;1.23;0.75;;;;;;;;;;4936210;28;20127;-78
2023/10/23 14:04:06;;;;;;;1.85;0.50;;;;;;;;;;4958172;28;20043;-78
2023/10/23 14:06:31;;;;;;;1.88;0.60;;;;;;;;;;4920034;28;20481;-78
2023/10/23 14:08:56;;;;;;;1.30;0.50;;;;;;;;;;4922475;28;20035;-78
2023/10/23 14:11:22;;;;;;;1.52;0.60;;;;;;;;;;4940388;28;20032;-78
2023/10/23 14:13:48;;;;;;;1.70;0.80;;;;;;;;;;4927552;28;20118;-77
2023/10/23 14:16:14;;;;;;;0.88;0.65;;;;;;;;;;4953809;28;20039;-78
2023/10/23 14:18:40;;;;;;;2.55;0.80;;;;;;;;;;4939579;28;20043;-78
2023/10/23 14:21:05;;;;;;;0.98;0.55;;;;;;;;;;4946443;28;20077;-78
2023/10/23 14:23:31;;;;;;;1.27;0.60;;;;;;;;;;4941416;28;20043;-78
2023/10/23 14:25:56;;;;;;;1.45;0.77;;;;;;;;;;4924761;28;20085;-78
2023/10/23 14:28:22;;;;;;;0.77;0.55;;;;;;;;;;4955385;28;20043;-78
2023/10/23 14:30:49;;;;;;;0.60;0.57;;;;;;;;;;4947283;28;20396;-78
2023/10/23 14:33:15;;;;;;;1.92;0.55;;;;;;;;;;4919509;28;20492;-78
2023/10/23 14:35:41;;;;;;;1.95;0.70;;;;;;;;;;4962223;28;20057;-78
2023/10/23 14:38:07;;;;;;;1.00;0.63;;;;;;;;;;4940570;28;20122;-78
2023/10/23 14:40:33;;;;;;;1.52;0.88;;;;;;;;;;4943599;28;20088;-77